sensor_id;sensor_type;location;lat;lon;timestamp;pressure;altitude;pressure_sealevel;temperature;humidity
58686;BME280;44465;53.206;-6.106;2023-04-25T00:01:21;101721.63;;;21.14;48.24
58686;BME280;44465;53.206;-6.106;2023-04-25T00:03:47;101725.25;;;21.13;48.42
58686;BME280;44465;53.206;-6.106;2023-04-25T00:06:13;101729.66;;;21.14;48.42
58686;BME280;44465;53.206;-6.106;2023-04-25T00:08:39;101720.03;;;21.10;48.30
58686;BME280;44465;53.206;-6.106;2023-04-25T00:11:04;101737.69;;;21.14;48.44
58686;BME280;44465;53.206;-6.106;2023-04-25T00:13:30;101736.09;;;21.10;48.30
58686;BME280;44465;53.206;-6.106;2023-04-25T00:18:25;101743.06;;;21.14;48.19
58686;BME280;44465;53.206;-6.106;2023-04-25T00:20:54;101746.81;;;21.10;48.34
58686;BME280;44465;53.206;-6.106;2023-04-25T00:23:19;101737.06;;;21.07;48.50
58686;BME280;44465;53.206;-6.106;2023-04-25T00:25:45;101746.81;;;21.10;48.24
58686;BME280;44465;53.206;-6.106;2023-04-25T00:28:12;101742.19;;;21.13;48.19
58686;BME280;44465;53.206;-6.106;2023-04-25T00:30:38;101746.66;;;21.13;48.22
58686;BME280;44465;53.206;-6.106;2023-04-25T00:33:04;101747.66;;;21.10;48.30
58686;BME280;44465;53.206;-6.106;2023-04-25T00:35:31;101746.81;;;21.10;48.27
58686;BME280;44465;53.206;-6.106;2023-04-25T00:37:57;101747.75;;;21.08;48.29
58686;BME280;44465;53.206;-6.106;2023-04-25T00:40:22;101744.25;;;21.06;48.36
58686;BME280;44465;53.206;-6.106;2023-04-25T00:42:47;101736.34;;;21.03;48.41
58686;BME280;44465;53.206;-6.106;2023-04-25T00:45:14;101743.31;;;21.07;48.46
58686;BME280;44465;53.206;-6.106;2023-04-25T00:47:41;101741.66;;;21.05;48.39
58686;BME280;44465;53.206;-6.106;2023-04-25T00:50:09;101745.06;;;21.08;48.25
58686;BME280;44465;53.206;-6.106;2023-04-25T00:52:36;101742.44;;;21.07;48.26
58686;BME280;44465;53.206;-6.106;2023-04-25T00:55:03;101741.56;;;21.06;48.38
58686;BME280;44465;53.206;-6.106;2023-04-25T00:57:29;101744.25;;;21.06;48.16
58686;BME280;44465;53.206;-6.106;2023-04-25T00:59:55;101741.84;;;21.00;48.28
58686;BME280;44465;53.206;-6.106;2023-04-25T01:02:21;101741.56;;;21.06;48.16
58686;BME280;44465;53.206;-6.106;2023-04-25T01:04:48;101748.69;;;21.07;48.17
58686;BME280;44465;53.206;-6.106;2023-04-25T01:07:13;101754.97;;;21.06;48.30
58686;BME280;44465;53.206;-6.106;2023-04-25T01:09:40;101753.28;;;21.04;48.23
58686;BME280;44465;53.206;-6.106;2023-04-25T01:12:07;101751.53;;;21.03;48.28
58686;BME280;44465;53.206;-6.106;2023-04-25T01:14:33;101750.53;;;21.05;48.12
58686;BME280;44465;53.206;-6.106;2023-04-25T01:16:58;101749.72;;;21.03;48.46
58686;BME280;44465;53.206;-6.106;2023-04-25T01:19:24;101748.91;;;21.01;48.23
58686;BME280;44465;53.206;-6.106;2023-04-25T01:21:50;101750.66;;;21.02;48.45
58686;BME280;44465;53.206;-6.106;2023-04-25T01:24:16;101743.56;;;21.01;48.43
58686;BME280;44465;53.206;-6.106;2023-04-25T01:26:42;101744.44;;;21.02;48.53
58686;BME280;44465;53.206;-6.106;2023-04-25T01:29:20;101749.78;;;21.02;48.15
58686;BME280;44465;53.206;-6.106;2023-04-25T01:31:46;101739.94;;;21.02;48.39
58686;BME280;44465;53.206;-6.106;2023-04-25T01:34:12;101740.03;;;21.01;48.38
58686;BME280;44465;53.206;-6.106;2023-04-25T01:36:38;101746.19;;;21.03;48.12
58686;BME280;44465;53.206;-6.106;2023-04-25T01:39:05;101742.63;;;21.02;48.37
58686;BME280;44465;53.206;-6.106;2023-04-25T01:41:31;101738.34;;;20.98;48.16
58686;BME280;44465;53.206;-6.106;2023-04-25T01:43:56;101742.69;;;21.01;48.07
58686;BME280;44465;53.206;-6.106;2023-04-25T01:46:22;101740.88;;;21.01;47.99
58686;BME280;44465;53.206;-6.106;2023-04-25T01:48:49;101746.19;;;21.03;48.15
58686;BME280;44465;53.206;-6.106;2023-04-25T01:51:15;101732.91;;;21.00;48.20
58686;BME280;44465;53.206;-6.106;2023-04-25T01:53:42;101726.75;;;20.98;48.21
58686;BME280;44465;53.206;-6.106;2023-04-25T01:56:07;101722.31;;;20.97;48.29
58686;BME280;44465;53.206;-6.106;2023-04-25T01:58:34;101729.38;;;20.99;48.24
58686;BME280;44465;53.206;-6.106;2023-04-25T02:01:21;101733.91;;;20.97;48.16
58686;BME280;44465;53.206;-6.106;2023-04-25T02:04:00;101733.97;;;20.96;48.28
58686;BME280;44465;53.206;-6.106;2023-04-25T02:06:32;101719.16;;;20.87;48.31
58686;BME280;44465;53.206;-6.106;2023-04-25T02:08:57;101705.31;;;20.75;48.41
58686;BME280;44465;53.206;-6.106;2023-04-25T02:11:23;101707.06;;;20.76;48.18
58686;BME280;44465;53.206;-6.106;2023-04-25T02:13:59;101738.56;;;20.92;47.92
58686;BME280;44465;53.206;-6.106;2023-04-25T02:16:42;101738.75;;;20.87;48.34
58686;BME280;44465;53.206;-6.106;2023-04-25T02:19:09;101749.97;;;20.97;48.02
58686;BME280;44465;53.206;-6.106;2023-04-25T02:21:35;101746.41;;;20.97;48.15
58686;BME280;44465;53.206;-6.106;2023-04-25T02:24:01;101744.56;;;20.99;48.06
58686;BME280;44465;53.206;-6.106;2023-04-25T02:26:27;101735.03;;;20.91;47.97
58686;BME280;44465;53.206;-6.106;2023-04-25T02:28:53;101741.22;;;20.94;48.08
58686;BME280;44465;53.206;-6.106;2023-04-25T02:31:18;101734.09;;;20.92;48.12
58686;BME280;44465;53.206;-6.106;2023-04-25T02:33:44;101742.97;;;20.95;48.17
58686;BME280;44465;53.206;-6.106;2023-04-25T02:36:10;101735.09;;;20.90;48.18
58686;BME280;44465;53.206;-6.106;2023-04-25T02:38:35;101735.22;;;20.87;48.16
58686;BME280;44465;53.206;-6.106;2023-04-25T02:41:02;101730.78;;;20.86;48.33
58686;BME280;44465;53.206;-6.106;2023-04-25T02:43:28;101742.19;;;20.91;48.31
58686;BME280;44465;53.206;-6.106;2023-04-25T02:45:53;101738.56;;;20.92;48.06
58686;BME280;44465;53.206;-6.106;2023-04-25T02:48:18;101740.31;;;20.93;48.11
58686;BME280;44465;53.206;-6.106;2023-04-25T02:50:44;101739.47;;;20.92;47.98
58686;BME280;44465;53.206;-6.106;2023-04-25T02:53:10;101742.06;;;20.94;48.19
58686;BME280;44465;53.206;-6.106;2023-04-25T02:55:43;101733.22;;;20.92;47.80
58686;BME280;44465;53.206;-6.106;2023-04-25T02:58:08;101733.22;;;20.92;47.90
58686;BME280;44465;53.206;-6.106;2023-04-25T03:00:45;101735.03;;;20.91;48.07
58686;BME280;44465;53.206;-6.106;2023-04-25T03:03:11;101731.44;;;20.92;48.11
58686;BME280;44465;53.206;-6.106;2023-04-25T03:05:36;101717.34;;;20.87;48.17
58686;BME280;44465;53.206;-6.106;2023-04-25T03:08:02;101708.94;;;20.74;48.05
58686;BME280;44465;53.206;-6.106;2023-04-25T03:10:29;101734.22;;;20.89;48.12
58686;BME280;44465;53.206;-6.106;2023-04-25T03:12:58;101700.19;;;20.69;48.38
58686;BME280;44465;53.206;-6.106;2023-04-25T03:15:24;101726.28;;;20.86;48.28
58686;BME280;44465;53.206;-6.106;2023-04-25T03:17:51;101698.31;;;20.71;48.08
58686;BME280;44465;53.206;-6.106;2023-04-25T03:20:16;101726.13;;;20.91;48.09
58686;BME280;44465;53.206;-6.106;2023-04-25T03:22:42;101726.19;;;20.89;48.30
58686;BME280;44465;53.206;-6.106;2023-04-25T03:25:07;101721.72;;;20.90;48.14
58686;BME280;44465;53.206;-6.106;2023-04-25T03:27:34;101724.44;;;20.88;47.97
58686;BME280;44465;53.206;-6.106;2023-04-25T03:29:59;101728.00;;;20.89;48.01
58686;BME280;44465;53.206;-6.106;2023-04-25T03:32:25;101729.88;;;20.87;48.04
58686;BME280;44465;53.206;-6.106;2023-04-25T03:34:50;101736.97;;;20.88;47.95
58686;BME280;44465;53.206;-6.106;2023-04-25T03:37:16;101733.41;;;20.87;48.05
58686;BME280;44465;53.206;-6.106;2023-04-25T03:39:41;101742.31;;;20.88;47.90
58686;BME280;44465;53.206;-6.106;2023-04-25T03:42:07;101739.66;;;20.88;48.04
58686;BME280;44465;53.206;-6.106;2023-04-25T03:44:32;101746.78;;;20.87;48.14
58686;BME280;44465;53.206;-6.106;2023-04-25T03:47:01;101743.28;;;20.85;48.16
58686;BME280;44465;53.206;-6.106;2023-04-25T03:49:26;101738.81;;;20.86;48.06
58686;BME280;44465;53.206;-6.106;2023-04-25T03:51:56;101743.28;;;20.85;48.03
58686;BME280;44465;53.206;-6.106;2023-04-25T03:54:22;101745.94;;;20.87;48.13
58686;BME280;44465;53.206;-6.106;2023-04-25T03:57:14;101739.81;;;20.83;48.27
58686;BME280;44465;53.206;-6.106;2023-04-25T03:59:41;101743.28;;;20.85;47.97
58686;BME280;44465;53.206;-6.106;2023-04-25T04:02:10;101741.50;;;20.86;47.99
58686;BME280;44465;53.206;-6.106;2023-04-25T04:04:36;101737.09;;;20.85;48.04
58686;BME280;44465;53.206;-6.106;2023-04-25T04:07:02;101742.31;;;20.88;47.94
58686;BME280;44465;53.206;-6.106;2023-04-25T04:09:31;101736.16;;;20.86;47.95
58686;BME280;44465;53.206;-6.106;2023-04-25T04:11:58;101738.81;;;20.86;48.01
58686;BME280;44465;53.206;-6.106;2023-04-25T04:14:24;101734.41;;;20.85;47.79
58686;BME280;44465;53.206;-6.106;2023-04-25T04:16:51;101743.28;;;20.85;47.79
58686;BME280;44465;53.206;-6.106;2023-04-25T04:19:17;101739.75;;;20.85;47.88
58686;BME280;44465;53.206;-6.106;2023-04-25T04:21:52;101739.75;;;20.85;47.86
58686;BME280;44465;53.206;-6.106;2023-04-25T04:24:18;101741.56;;;20.84;48.12
58686;BME280;44465;53.206;-6.106;2023-04-25T04:26:59;101741.63;;;20.83;48.04
58686;BME280;44465;53.206;-6.106;2023-04-25T04:29:50;101738.94;;;20.83;48.08
58686;BME280;44465;53.206;-6.106;2023-04-25T04:32:40;101732.84;;;20.79;48.07
58686;BME280;44465;53.206;-6.106;2023-04-25T04:35:06;101736.41;;;20.80;47.88
58686;BME280;44465;53.206;-6.106;2023-04-25T04:37:32;101734.69;;;20.77;47.96
58686;BME280;44465;53.206;-6.106;2023-04-25T04:39:59;101744.38;;;20.81;48.06
58686;BME280;44465;53.206;-6.106;2023-04-25T04:42:49;101744.44;;;20.80;48.21
58686;BME280;44465;53.206;-6.106;2023-04-25T04:45:33;101746.16;;;20.81;48.19
58686;BME280;44465;53.206;-6.106;2023-04-25T04:48:27;101749.78;;;20.80;47.98
58686;BME280;44465;53.206;-6.106;2023-04-25T04:51:13;101758.59;;;20.82;48.11
58686;BME280;44465;53.206;-6.106;2023-04-25T04:53:49;101764.88;;;20.81;48.09
58686;BME280;44465;53.206;-6.106;2023-04-25T04:56:40;101765.84;;;20.80;48.01
58686;BME280;44465;53.206;-6.106;2023-04-25T04:59:36;101768.56;;;20.78;47.99
58686;BME280;44465;53.206;-6.106;2023-04-25T05:02:21;101752.03;;;20.67;48.16
58686;BME280;44465;53.206;-6.106;2023-04-25T05:05:09;101775.66;;;20.79;48.11
58686;BME280;44465;53.206;-6.106;2023-04-25T05:07:54;101780.16;;;20.79;48.10
58686;BME280;44465;53.206;-6.106;2023-04-25T05:10:45;101787.28;;;20.80;48.04
58686;BME280;44465;53.206;-6.106;2023-04-25T05:13:22;101770.53;;;20.73;48.19
58686;BME280;44465;53.206;-6.106;2023-04-25T05:16:03;101779.28;;;20.78;47.95
58686;BME280;44465;53.206;-6.106;2023-04-25T05:18:47;101788.22;;;20.77;47.88
58686;BME280;44465;53.206;-6.106;2023-04-25T05:21:37;101781.13;;;20.76;48.18
58686;BME280;44465;53.206;-6.106;2023-04-25T05:24:13;101789.06;;;20.79;48.14
58686;BME280;44465;53.206;-6.106;2023-04-25T05:26:58;101776.81;;;20.72;47.97
58686;BME280;44465;53.206;-6.106;2023-04-25T05:29:52;101784.69;;;20.76;48.01
58686;BME280;44465;53.206;-6.106;2023-04-25T05:32:35;101786.50;;;20.76;48.03
58686;BME280;44465;53.206;-6.106;2023-04-25T05:35:02;101790.97;;;20.75;48.10
58686;BME280;44465;53.206;-6.106;2023-04-25T05:37:32;101786.50;;;20.76;48.02
58686;BME280;44465;53.206;-6.106;2023-04-25T05:40:08;101791.91;;;20.74;48.04
58686;BME280;44465;53.206;-6.106;2023-04-25T05:42:45;101791.94;;;20.73;48.33
58686;BME280;44465;53.206;-6.106;2023-04-25T05:45:41;101794.59;;;20.74;48.10
58686;BME280;44465;53.206;-6.106;2023-04-25T05:48:39;101789.22;;;20.74;47.97
58686;BME280;44465;53.206;-6.106;2023-04-25T05:51:40;101784.03;;;20.70;48.45
58686;BME280;44465;53.206;-6.106;2023-04-25T05:54:18;101793.72;;;20.74;48.16
58686;BME280;44465;53.206;-6.106;2023-04-25T05:56:44;101799.94;;;20.74;48.13
58686;BME280;44465;53.206;-6.106;2023-04-25T05:59:13;101796.34;;;20.75;48.03
58686;BME280;44465;53.206;-6.106;2023-04-25T06:01:39;101792.81;;;20.73;48.04
58686;BME280;44465;53.206;-6.106;2023-04-25T06:04:05;101781.34;;;20.70;48.12
58686;BME280;44465;53.206;-6.106;2023-04-25T06:06:32;101786.69;;;20.70;48.17
58686;BME280;44465;53.206;-6.106;2023-04-25T06:08:58;101783.97;;;20.71;48.26
58686;BME280;44465;53.206;-6.106;2023-04-25T06:11:24;101786.56;;;20.74;48.13
58686;BME280;44465;53.206;-6.106;2023-04-25T06:13:49;101783.97;;;20.71;48.20
58686;BME280;44465;53.206;-6.106;2023-04-25T06:16:15;101756.13;;;20.53;48.11
58686;BME280;44465;53.206;-6.106;2023-04-25T06:18:41;101751.69;;;20.52;48.15
58686;BME280;44465;53.206;-6.106;2023-04-25T06:21:07;101773.25;;;20.71;48.23
58686;BME280;44465;53.206;-6.106;2023-04-25T06:23:33;101766.97;;;20.74;48.01
58686;BME280;44465;53.206;-6.106;2023-04-25T06:26:05;101744.41;;;20.56;47.95
58686;BME280;44465;53.206;-6.106;2023-04-25T06:28:32;101756.41;;;20.69;48.18
58686;BME280;44465;53.206;-6.106;2023-04-25T06:30:58;101738.25;;;20.54;48.01
58686;BME280;44465;53.206;-6.106;2023-04-25T06:33:24;101754.13;;;20.58;48.14
58686;BME280;44465;53.206;-6.106;2023-04-25T06:35:50;101774.13;;;20.72;48.17
58686;BME280;44465;53.206;-6.106;2023-04-25T06:38:20;101782.94;;;20.75;48.13
58686;BME280;44465;53.206;-6.106;2023-04-25T06:40:49;101751.53;;;20.57;47.94
58686;BME280;44465;53.206;-6.106;2023-04-25T06:43:16;101787.44;;;20.73;48.40
58686;BME280;44465;53.206;-6.106;2023-04-25T06:45:54;101793.66;;;20.75;48.05
58686;BME280;44465;53.206;-6.106;2023-04-25T06:48:21;101757.91;;;20.53;48.38
58686;BME280;44465;53.206;-6.106;2023-04-25T06:50:47;101754.41;;;20.51;47.94
58686;BME280;44465;53.206;-6.106;2023-04-25T06:53:12;101788.53;;;20.69;48.36
58686;BME280;44465;53.206;-6.106;2023-04-25T06:55:40;101787.56;;;20.70;48.21
58686;BME280;44465;53.206;-6.106;2023-04-25T06:58:17;101750.94;;;20.49;48.27
58686;BME280;44465;53.206;-6.106;2023-04-25T07:00:55;101762.25;;;20.55;48.36
58686;BME280;44465;53.206;-6.106;2023-04-25T07:03:23;101801.13;;;20.66;48.22
58686;BME280;44465;53.206;-6.106;2023-04-25T07:05:51;101774.78;;;20.55;48.37
58686;BME280;44465;53.206;-6.106;2023-04-25T07:08:17;101799.94;;;20.74;48.17
58686;BME280;44465;53.206;-6.106;2023-04-25T07:10:42;101768.41;;;20.59;48.34
58686;BME280;44465;53.206;-6.106;2023-04-25T07:13:08;101768.41;;;20.59;48.06
58686;BME280;44465;53.206;-6.106;2023-04-25T07:15:34;101778.69;;;20.70;48.13
58686;BME280;44465;53.206;-6.106;2023-04-25T07:18:00;101789.22;;;20.74;48.12
58686;BME280;44465;53.206;-6.106;2023-04-25T07:20:26;101797.16;;;20.77;48.23
58686;BME280;44465;53.206;-6.106;2023-04-25T07:22:53;101771.19;;;20.56;48.21
58686;BME280;44465;53.206;-6.106;2023-04-25T07:25:19;101770.09;;;20.60;47.96
58686;BME280;44465;53.206;-6.106;2023-04-25T07:27:44;101796.41;;;20.72;48.19
58686;BME280;44465;53.206;-6.106;2023-04-25T07:30:16;101792.91;;;20.70;48.12
58686;BME280;44465;53.206;-6.106;2023-04-25T07:32:41;101812.47;;;20.72;48.17
58686;BME280;44465;53.206;-6.106;2023-04-25T07:35:07;101802.69;;;20.71;48.42
58686;BME280;44465;53.206;-6.106;2023-04-25T07:37:34;101819.56;;;20.73;48.42
58686;BME280;44465;53.206;-6.106;2023-04-25T07:40:06;101782.06;;;20.51;48.33
58686;BME280;44465;53.206;-6.106;2023-04-25T07:42:33;101807.25;;;20.69;47.96
58686;BME280;44465;53.206;-6.106;2023-04-25T07:45:00;101807.13;;;20.72;48.05
58686;BME280;44465;53.206;-6.106;2023-04-25T07:47:26;101811.50;;;20.75;48.12
58686;BME280;44465;53.206;-6.106;2023-04-25T07:49:52;101786.34;;;20.55;48.09
58686;BME280;44465;53.206;-6.106;2023-04-25T07:52:17;101788.16;;;20.55;47.90
58686;BME280;44465;53.206;-6.106;2023-04-25T07:54:49;101823.03;;;20.77;47.90
58686;BME280;44465;53.206;-6.106;2023-04-25T07:57:19;101808.03;;;20.71;48.11
58686;BME280;44465;53.206;-6.106;2023-04-25T07:59:46;101788.16;;;20.55;47.88
58686;BME280;44465;53.206;-6.106;2023-04-25T08:02:12;101816.97;;;20.72;48.07
58686;BME280;44465;53.206;-6.106;2023-04-25T08:04:38;101813.25;;;20.76;48.11
58686;BME280;44465;53.206;-6.106;2023-04-25T08:07:07;101815.94;;;20.76;47.85
58686;BME280;44465;53.206;-6.106;2023-04-25T08:09:44;101812.41;;;20.75;47.94
58686;BME280;44465;53.206;-6.106;2023-04-25T08:12:18;101810.66;;;20.74;47.93
58686;BME280;44465;53.206;-6.106;2023-04-25T08:14:43;101810.66;;;20.74;48.35
58686;BME280;44465;53.206;-6.106;2023-04-25T08:17:09;101814.81;;;20.82;48.46
58686;BME280;44465;53.206;-6.106;2023-04-25T08:19:39;101806.03;;;20.78;48.22
58686;BME280;44465;53.206;-6.106;2023-04-25T08:22:06;101804.28;;;20.77;48.47
58686;BME280;44465;53.206;-6.106;2023-04-25T08:24:42;101813.03;;;20.82;48.28
58686;BME280;44465;53.206;-6.106;2023-04-25T08:27:08;101815.53;;;20.87;48.61
58686;BME280;44465;53.206;-6.106;2023-04-25T08:29:34;101814.66;;;20.86;48.49
58686;BME280;44465;53.206;-6.106;2023-04-25T08:32:00;101820.81;;;20.88;48.51
58686;BME280;44465;53.206;-6.106;2023-04-25T08:34:26;101813.69;;;20.89;48.90
58686;BME280;44465;53.206;-6.106;2023-04-25T08:36:52;101827.00;;;20.90;48.45
58686;BME280;44465;53.206;-6.106;2023-04-25T08:39:36;101821.75;;;20.87;48.31
58686;BME280;44465;53.206;-6.106;2023-04-25T08:42:21;101816.56;;;20.83;48.59
58686;BME280;44465;53.206;-6.106;2023-04-25T08:44:48;101812.28;;;20.79;48.46
58686;BME280;44465;53.206;-6.106;2023-04-25T08:47:14;101820.19;;;20.82;48.39
58686;BME280;44465;53.206;-6.106;2023-04-25T08:49:45;101825.69;;;20.79;48.16
58686;BME280;44465;53.206;-6.106;2023-04-25T08:52:13;101820.44;;;20.75;46.50
58686;BME280;44465;53.206;-6.106;2023-04-25T08:54:43;101822.31;;;20.72;46.11
58686;BME280;44465;53.206;-6.106;2023-04-25T08:57:11;101820.78;;;20.65;45.06
58686;BME280;44465;53.206;-6.106;2023-04-25T08:59:37;101813.88;;;20.59;44.80
58686;BME280;44465;53.206;-6.106;2023-04-25T09:02:05;101818.19;;;20.63;44.91
58686;BME280;44465;53.206;-6.106;2023-04-25T09:04:32;101821.69;;;20.65;44.87
58686;BME280;44465;53.206;-6.106;2023-04-25T09:06:57;101812.06;;;20.59;44.79
58686;BME280;44465;53.206;-6.106;2023-04-25T09:09:24;101818.19;;;20.63;44.53
58686;BME280;44465;53.206;-6.106;2023-04-25T09:11:49;101788.69;;;20.41;44.39
58686;BME280;44465;53.206;-6.106;2023-04-25T09:14:20;101796.56;;;20.44;44.90
58686;BME280;44465;53.206;-6.106;2023-04-25T09:17:05;101818.63;;;20.51;43.91
58686;BME280;44465;53.206;-6.106;2023-04-25T09:19:53;101819.44;;;20.53;44.07
58686;BME280;44465;53.206;-6.106;2023-04-25T09:22:27;101800.31;;;20.40;44.31
58686;BME280;44465;53.206;-6.106;2023-04-25T09:24:53;101814.34;;;20.46;44.76
58686;BME280;44465;53.206;-6.106;2023-04-25T09:27:21;101796.72;;;20.41;44.43
58686;BME280;44465;53.206;-6.106;2023-04-25T09:29:59;101806.50;;;20.40;44.03
58686;BME280;44465;53.206;-6.106;2023-04-25T09:32:43;101834.69;;;20.51;44.21
58686;BME280;44465;53.206;-6.106;2023-04-25T09:35:09;101796.28;;;20.28;44.32
58686;BME280;44465;53.206;-6.106;2023-04-25T09:37:35;101813.84;;;20.35;44.20
58686;BME280;44465;53.206;-6.106;2023-04-25T09:40:45;101829.56;;;20.44;44.29
58686;BME280;44465;53.206;-6.106;2023-04-25T09:43:19;101803.34;;;20.29;44.20
58686;BME280;44465;53.206;-6.106;2023-04-25T09:45:51;101830.50;;;20.43;44.17
58686;BME280;44465;53.206;-6.106;2023-04-25T09:48:21;101836.56;;;20.49;44.37
58686;BME280;44465;53.206;-6.106;2023-04-25T09:51:05;101834.81;;;20.48;44.82
58686;BME280;44465;53.206;-6.106;2023-04-25T09:53:33;101805.25;;;20.27;44.38
58686;BME280;44465;53.206;-6.106;2023-04-25T09:56:26;101805.25;;;20.27;44.00
58686;BME280;44465;53.206;-6.106;2023-04-25T09:58:55;101807.94;;;20.25;44.07
58686;BME280;44465;53.206;-6.106;2023-04-25T10:01:21;101821.06;;;20.33;44.35
58686;BME280;44465;53.206;-6.106;2023-04-25T10:04:10;101814.19;;;20.26;44.32
58686;BME280;44465;53.206;-6.106;2023-04-25T10:06:48;101827.25;;;20.34;44.02
58686;BME280;44465;53.206;-6.106;2023-04-25T10:09:16;101820.41;;;20.26;44.11
58686;BME280;44465;53.206;-6.106;2023-04-25T10:11:44;101832.50;;;20.37;44.34
58686;BME280;44465;53.206;-6.106;2023-04-25T10:14:12;101854.47;;;20.46;44.67
58686;BME280;44465;53.206;-6.106;2023-04-25T10:16:38;101851.78;;;20.46;44.54
58686;BME280;44465;53.206;-6.106;2023-04-25T10:19:04;101859.69;;;20.50;44.89
58686;BME280;44465;53.206;-6.106;2023-04-25T10:21:31;101833.41;;;20.37;45.18
58686;BME280;44465;53.206;-6.106;2023-04-25T10:23:58;101822.91;;;20.31;45.11
58686;BME280;44465;53.206;-6.106;2023-04-25T10:26:24;101856.91;;;20.53;45.33
58686;BME280;44465;53.206;-6.106;2023-04-25T10:29:01;101850.69;;;20.52;45.56
58686;BME280;44465;53.206;-6.106;2023-04-25T10:31:27;101849.78;;;20.53;45.55
58686;BME280;44465;53.206;-6.106;2023-04-25T10:33:54;101841.03;;;20.48;45.48
58686;BME280;44465;53.206;-6.106;2023-04-25T10:36:21;101848.78;;;20.56;44.96
58686;BME280;44465;53.206;-6.106;2023-04-25T10:38:47;101850.88;;;20.48;45.77
58686;BME280;44465;53.206;-6.106;2023-04-25T10:41:14;101849.06;;;20.48;45.18
58686;BME280;44465;53.206;-6.106;2023-04-25T10:43:41;101854.25;;;20.53;45.18
58686;BME280;44465;53.206;-6.106;2023-04-25T10:46:27;101843.63;;;20.50;45.14
58686;BME280;44465;53.206;-6.106;2023-04-25T10:48:56;101853.38;;;20.52;45.11
58686;BME280;44465;53.206;-6.106;2023-04-25T10:51:22;101859.81;;;20.46;45.83
58686;BME280;44465;53.206;-6.106;2023-04-25T10:59:19;101862.25;;;20.53;44.74
58686;BME280;44465;53.206;-6.106;2023-04-25T11:01:46;101861.34;;;20.54;44.98
58686;BME280;44465;53.206;-6.106;2023-04-25T11:04:23;101855.13;;;20.53;45.19
58686;BME280;44465;53.206;-6.106;2023-04-25T11:09:30;101859.53;;;20.54;44.84
58686;BME280;44465;53.206;-6.106;2023-04-25T11:11:56;101854.16;;;20.54;44.77
58686;BME280;44465;53.206;-6.106;2023-04-25T11:14:22;101858.66;;;20.54;44.86
58686;BME280;44465;53.206;-6.106;2023-04-25T11:16:58;101852.38;;;20.55;45.12
58686;BME280;44465;53.206;-6.106;2023-04-25T11:19:24;101851.47;;;20.56;45.00
58686;BME280;44465;53.206;-6.106;2023-04-25T11:21:50;101848.78;;;20.56;44.96
58686;BME280;44465;53.206;-6.106;2023-04-25T11:24:16;101846.94;;;20.58;44.98
58686;BME280;44465;53.206;-6.106;2023-04-25T11:26:43;101850.53;;;20.57;45.25
58686;BME280;44465;53.206;-6.106;2023-04-25T11:29:11;101843.34;;;20.57;44.96
58686;BME280;44465;53.206;-6.106;2023-04-25T11:31:37;101840.75;;;20.56;45.10
58686;BME280;44465;53.206;-6.106;2023-04-25T11:34:02;101847.78;;;20.58;45.25
58686;BME280;44465;53.206;-6.106;2023-04-25T11:36:28;101838.94;;;20.56;45.56
58686;BME280;44465;53.206;-6.106;2023-04-25T11:38:53;101848.59;;;20.60;45.50
58686;BME280;44465;53.206;-6.106;2023-04-25T11:41:20;101844.09;;;20.63;45.34
58686;BME280;44465;53.206;-6.106;2023-04-25T11:43:47;101832.84;;;20.53;45.71
58686;BME280;44465;53.206;-6.106;2023-04-25T11:46:13;101844.25;;;20.58;45.03
58686;BME280;44465;53.206;-6.106;2023-04-25T11:48:42;101834.50;;;20.55;45.32
58686;BME280;44465;53.206;-6.106;2023-04-25T11:51:08;101830.06;;;20.56;44.93
58686;BME280;44465;53.206;-6.106;2023-04-25T11:53:34;101833.41;;;20.61;44.60
58686;BME280;44465;53.206;-6.106;2023-04-25T11:56:00;101834.34;;;20.60;45.06
58686;BME280;44465;53.206;-6.106;2023-04-25T11:58:26;101827.28;;;20.59;44.82
58686;BME280;44465;53.206;-6.106;2023-04-25T12:00:52;101820.09;;;20.59;45.11
58686;BME280;44465;53.206;-6.106;2023-04-25T12:03:19;101825.38;;;20.61;45.31
58686;BME280;44465;53.206;-6.106;2023-04-25T12:05:45;101826.28;;;20.61;44.87
58686;BME280;44465;53.206;-6.106;2023-04-25T12:08:12;101836.09;;;20.61;45.26
58686;BME280;44465;53.206;-6.106;2023-04-25T12:10:39;101836.91;;;20.63;44.74
58686;BME280;44465;53.206;-6.106;2023-04-25T12:13:26;101832.47;;;20.62;45.26
58686;BME280;44465;53.206;-6.106;2023-04-25T12:15:54;101801.13;;;20.42;44.74
58686;BME280;44465;53.206;-6.106;2023-04-25T12:18:21;101813.06;;;20.57;45.15
58686;BME280;44465;53.206;-6.106;2023-04-25T12:20:48;101800.03;;;20.48;44.85
58686;BME280;44465;53.206;-6.106;2023-04-25T12:23:13;101830.56;;;20.66;44.97
58686;BME280;44465;53.206;-6.106;2023-04-25T12:25:43;101828.78;;;20.66;45.26
58686;BME280;44465;53.206;-6.106;2023-04-25T12:28:22;101835.06;;;20.65;44.81
58686;BME280;44465;53.206;-6.106;2023-04-25T12:31:06;101832.38;;;20.65;45.19
58686;BME280;44465;53.206;-6.106;2023-04-25T12:33:36;101827.88;;;20.66;45.03
58686;BME280;44465;53.206;-6.106;2023-04-25T12:36:03;101825.28;;;20.64;44.90
58686;BME280;44465;53.206;-6.106;2023-04-25T12:38:36;101836.75;;;20.68;45.10
58686;BME280;44465;53.206;-6.106;2023-04-25T12:41:02;101826.09;;;20.66;44.94
58686;BME280;44465;53.206;-6.106;2023-04-25T12:43:27;101828.78;;;20.66;44.76
58686;BME280;44465;53.206;-6.106;2023-04-25T12:45:54;101818.06;;;20.66;44.96
58686;BME280;44465;53.206;-6.106;2023-04-25T12:48:20;101825.09;;;20.69;44.93
58686;BME280;44465;53.206;-6.106;2023-04-25T12:50:47;101822.44;;;20.69;45.19
58686;BME280;44465;53.206;-6.106;2023-04-25T12:53:17;101826.00;;;20.69;45.11
58686;BME280;44465;53.206;-6.106;2023-04-25T12:55:44;101824.25;;;20.68;45.30
58686;BME280;44465;53.206;-6.106;2023-04-25T12:58:12;101818.28;;;20.60;45.51
58686;BME280;44465;53.206;-6.106;2023-04-25T13:00:38;101827.88;;;20.66;44.76
58686;BME280;44465;53.206;-6.106;2023-04-25T13:03:04;101818.28;;;20.60;44.82
58686;BME280;44465;53.206;-6.106;2023-04-25T13:05:30;101803.28;;;20.56;44.84